Time;durP1;ratioP1;P1;durP2;ratioP2;P2;SDS_P1;SDS_P2;PMS_P1;PMS_P2;Temp;Humidity;BMP_temperature;BMP_pressure;BME280_temperature;BME280_humidity;BME280_pressure;Samples;Min_cycle;Max_cycle;Signal;HPM_P1;HPM_P2
2023/10/22 00:00:12;;;;;;;11.85;5.45;;;14.20;99.90;;;14.49;100.00;99263.94;4815766;29;20103;-65
2023/10/22 00:02:41;;;;;;;7.47;5.15;;;14.30;99.90;;;14.47;100.00;99271.13;4808555;29;20054;-65
2023/10/22 00:05:10;;;;;;;6.93;4.88;;;14.20;99.90;;;14.44;100.00;99266.78;4809807;29;20043;-65
2023/10/22 00:07:38;;;;;;;9.57;4.93;;;14.20;99.90;;;14.49;100.00;99274.56;4819052;29;20081;-65
2023/10/22 00:10:07;;;;;;;12.85;5.80;;;14.30;99.90;;;14.50;100.00;99272.78;4815979;29;20149;-65
2023/10/22 00:12:37;;;;;;;9.50;5.57;;;14.30;99.90;;;14.47;100.00;99271.13;4811713;29;20047;-65
2023/10/22 00:15:06;;;;;;;9.97;5.00;;;14.30;99.90;;;14.58;100.00;99282.13;4821504;29;20055;-65
2023/10/22 00:17:35;;;;;;;8.40;4.68;;;14.30;99.90;;;14.59;100.00;99281.22;4813111;29;20428;-65
2023/10/22 00:20:04;;;;;;;7.90;5.00;;;14.30;99.90;;;14.56;100.00;99291.97;4814422;29;20051;-65
2023/10/22 00:22:32;;;;;;;7.72;4.72;;;14.30;99.90;;;14.57;100.00;99288.41;4804445;29;20082;-65
2023/10/22 00:25:01;;;;;;;11.00;4.80;;;14.30;99.90;;;14.55;100.00;99284.94;4809677;29;20073;-65
2023/10/22 00:27:29;;;;;;;7.22;4.20;;;14.30;99.90;;;14.56;100.00;99289.31;4808903;29;20058;-64
2023/10/22 00:29:59;;;;;;;5.90;4.47;;;14.30;99.90;;;14.52;100.00;99285.06;4816644;29;20473;-65
2023/10/22 00:32:29;;;;;;;8.75;5.13;;;14.30;99.90;;;14.60;100.00;99314.84;4809774;29;20050;-65
2023/10/22 00:34:58;;;;;;;6.13;4.30;;;14.30;99.90;;;14.54;100.00;99320.44;4822423;29;20074;-64
2023/10/22 00:37:27;;;;;;;7.25;4.88;;;14.30;99.90;;;14.67;100.00;99324.31;4800153;29;20085;-64
2023/10/22 00:39:55;;;;;;;8.15;4.60;;;14.40;99.90;;;14.66;100.00;99340.31;4801104;29;20095;-64
2023/10/22 00:42:24;;;;;;;8.07;4.82;;;14.40;99.90;;;14.61;100.00;99329.91;4809489;29;20050;-64
2023/10/22 00:44:52;;;;;;;8.63;4.88;;;14.40;99.90;;;14.71;100.00;99352.47;4803720;29;20046;-65
2023/10/22 00:47:22;;;;;;;9.07;4.68;;;14.40;99.90;;;14.78;100.00;99337.97;4813929;29;20046;-64
2023/10/22 00:49:50;;;;;;;9.10;5.43;;;14.50;99.90;;;14.78;100.00;99347.75;4795821;29;20051;-64
2023/10/22 00:52:19;;;;;;;7.30;4.38;;;14.50;99.90;;;14.87;100.00;99340.19;4820701;29;20123;-64
2023/10/22 00:54:48;;;;;;;6.65;4.78;;;14.60;99.90;;;14.89;100.00;99343.66;4793163;29;20103;-64
2023/10/22 00:57:17;;;;;;;8.30;4.35;;;14.60;99.90;;;14.90;100.00;99342.75;4815165;29;20069;-64
2023/10/22 00:59:45;;;;;;;12.88;4.72;;;14.60;99.90;;;14.93;100.00;99353.22;4818043;29;20126;-65
2023/10/22 01:02:14;;;;;;;11.32;4.85;;;14.70;99.90;;;14.94;100.00;99349.63;4808994;29;20050;-64
2023/10/22 01:04:44;;;;;;;14.88;4.95;;;14.70;99.90;;;15.07;100.00;99365.91;4818506;29;20138;-64
2023/10/22 01:07:13;;;;;;;7.80;4.70;;;14.80;99.90;;;15.19;100.00;99365.34;4814760;29;20419;-64
2023/10/22 01:09:41;;;;;;;7.20;4.57;;;14.90;99.90;;;15.29;100.00;99379.94;4814176;29;20408;-64
2023/10/22 01:12:10;;;;;;;10.80;4.47;;;15.00;99.90;;;15.22;100.00;99384.69;4820263;29;20050;-64
2023/10/22 01:14:38;;;;;;;10.23;4.50;;;14.90;99.90;;;15.28;100.00;99372.88;4811046;29;20081;-64
2023/10/22 01:17:07;;;;;;;7.10;4.20;;;15.00;99.90;;;15.37;100.00;99388.41;4813864;29;20084;-65
2023/10/22 01:19:36;;;;;;;9.38;4.30;;;15.10;99.90;;;15.40;100.00;99396.28;4818732;29;20153;-65
2023/10/22 01:22:06;;;;;;;10.10;4.25;;;15.10;99.90;;;15.52;100.00;99392.22;4808463;29;20058;-64
2023/10/22 01:24:36;;;;;;;10.93;4.27;;;15.20;99.90;;;15.56;100.00;99404.44;4819493;29;20102;-64
2023/10/22 01:27:04;;;;;;;9.15;4.03;;;15.30;99.90;;;15.55;100.00;99408.91;4815791;29;20362;-64
2023/10/22 01:29:33;;;;;;;9.55;4.20;;;15.30;99.90;;;15.54;100.00;99412.53;4807798;29;20130;-65
2023/10/22 01:32:02;;;;;;;9.02;4.03;;;15.30;99.90;;;15.54;100.00;99414.31;4820252;29;20058;-66
2023/10/22 01:34:31;;;;;;;11.20;5.22;;;15.30;99.90;;;15.63;100.00;99427.19;4812582;29;20528;-65
2023/10/22 01:36:59;;;;;;;17.30;5.55;;;15.40;99.90;;;15.68;100.00;99441.19;4812518;29;20076;-65
2023/10/22 01:39:28;;;;;;;12.85;5.20;;;15.40;99.90;;;15.62;100.00;99452.97;4803551;29;20062;-65
2023/10/22 01:41:57;;;;;;;11.55;4.95;;;15.40;99.90;;;15.28;100.00;99450.13;4820015;29;20053;-65
2023/10/22 01:44:26;;;;;;;9.05;3.92;;;15.20;99.90;;;15.32;100.00;99487.22;4796282;29;20145;-65
2023/10/22 01:46:54;;;;;;;8.45;4.53;;;15.10;99.90;;;15.15;100.00;99492.47;4812240;29;20059;-65
2023/10/22 01:49:23;;;;;;;6.07;3.55;;;15.00;99.90;;;15.18;100.00;99504.75;4803428;29;20058;-65
2023/10/22 01:51:52;;;;;;;7.13;3.70;;;14.90;99.90;;;15.10;100.00;99507.78;4808846;29;20458;-65
2023/10/22 01:54:21;;;;;;;9.10;4.05;;;14.80;99.90;;;15.06;100.00;99519.50;4815498;29;20143;-65
2023/10/22 01:56:49;;;;;;;9.25;4.05;;;14.80;99.90;;;14.91;100.00;99533.47;4816389;29;20115;-65
2023/10/22 01:59:19;;;;;;;11.68;4.47;;;14.70;99.90;;;14.81;100.00;99525.94;4791947;29;20217;-65
2023/10/22 02:01:47;;;;;;;12.32;4.25;;;14.60;99.90;;;14.78;100.00;99537.59;4802283;29;20111;-64
2023/10/22 02:04:15;;;;;;;14.40;5.38;;;14.60;99.90;;;14.86;100.00;99545.25;4813318;29;20066;-65
2023/10/22 02:06:44;;;;;;;11.98;4.95;;;14.60;99.90;;;14.86;100.00;99548.81;4821851;29;20089;-66
2023/10/22 02:09:14;;;;;;;12.98;5.20;;;14.60;99.90;;;14.95;100.00;99556.38;4823300;29;20053;-65
2023/10/22 02:11:43;;;;;;;;;;;14.70;99.90;;;14.97;100.00;99570.50;4797463;29;20054;-65
2023/10/22 02:14:11;;;;;;;13.63;5.10;;;14.80;99.90;;;14.89;100.00;99572.63;4817624;29;19925;-65
2023/10/22 02:16:41;;;;;;;12.80;5.50;;;14.70;99.90;;;14.76;100.00;99584.72;4821079;29;20119;-65
2023/10/22 02:19:09;;;;;;;9.67;5.57;;;14.60;99.90;;;14.69;100.00;99591.22;4811761;29;20047;-64
2023/10/22 02:21:38;;;;;;;12.05;5.55;;;14.50;99.90;;;14.69;100.00;99601.84;4822080;29;20365;-64
2023/10/22 02:24:07;;;;;;;11.25;6.05;;;14.50;99.90;;;14.73;100.00;99611.44;4818253;29;20050;-65
2023/10/22 02:26:36;;;;;;;13.55;6.05;;;14.50;99.90;;;14.65;100.00;99626.91;4813818;29;20059;-65
2023/10/22 02:29:04;;;;;;;16.02;7.00;;;14.50;99.90;;;14.61;100.00;99646.56;4807196;29;20492;-64
2023/10/22 02:31:33;;;;;;;10.90;7.35;;;14.40;99.90;;;14.61;100.00;99651.03;4798528;29;20046;-65
2023/10/22 02:34:09;;;;;;;13.20;5.38;;;14.40;99.90;;;14.40;100.00;99671.38;4822682;29;20063;-64
2023/10/22 02:36:37;;;;;;;10.38;6.78;;;14.30;99.90;;;14.44;100.00;99671.16;4822935;29;20054;-64
2023/10/22 02:39:08;;;;;;;11.02;6.65;;;14.20;99.90;;;14.58;100.00;99678.59;4823464;29;20086;-64
2023/10/22 02:41:36;;;;;;;12.23;5.90;;;14.30;99.90;;;14.51;100.00;99695.75;4816567;29;20110;-66
2023/10/22 02:44:05;;;;;;;11.88;6.00;;;14.30;99.90;;;14.51;100.00;99694.88;4815410;29;20119;-64
2023/10/22 02:46:34;;;;;;;15.40;6.03;;;14.30;99.90;;;14.43;100.00;99703.16;4807041;29;20047;-64
2023/10/22 02:49:03;;;;;;;11.50;6.53;;;14.20;99.90;;;14.41;100.00;99710.34;4812498;29;20090;-64
2023/10/22 02:51:33;;;;;;;15.25;6.35;;;14.20;99.90;;;14.38;100.00;99721.13;4818984;29;20130;-64
2023/10/22 02:54:01;;;;;;;12.30;5.70;;;14.20;99.90;;;14.12;100.00;99722.06;4804288;29;20070;-64
2023/10/22 02:56:30;;;;;;;12.07;5.10;;;14.00;99.90;;;14.24;100.00;99739.34;4822974;29;20122;-64
2023/10/22 02:58:58;;;;;;;10.27;5.63;;;14.00;99.90;;;14.28;100.00;99746.31;4808652;29;20054;-64
2023/10/22 03:01:27;;;;;;;9.85;4.85;;;14.00;99.90;;;14.33;100.00;99749.66;4815497;29;20270;-64
2023/10/22 03:03:55;;;;;;;8.05;4.60;;;14.10;99.90;;;14.30;100.00;99760.44;4816343;29;20394;-66
2023/10/22 03:06:24;;;;;;;11.68;4.82;;;14.00;99.90;;;14.40;100.00;99769.81;4822921;29;20082;-64
2023/10/22 03:08:54;;;;;;;11.05;5.25;;;14.10;99.90;;;14.39;100.00;99768.06;4797117;29;20078;-64
2023/10/22 03:11:22;;;;;;;10.35;5.43;;;14.10;99.90;;;14.37;100.00;99769.91;4821894;29;20055;-65
2023/10/22 03:13:52;;;;;;;9.65;4.93;;;14.10;99.90;;;14.40;100.00;99786.63;4804377;29;20054;-64
2023/10/22 03:16:21;;;;;;;8.35;4.28;;;14.10;99.90;;;14.42;100.00;99778.56;4822147;29;20047;-64
2023/10/22 03:18:50;;;;;;;7.25;4.30;;;14.20;99.90;;;14.46;100.00;99782.84;4821513;29;20054;-64
2023/10/22 03:21:20;;;;;;;10.82;4.90;;;14.20;99.90;;;14.50;100.00;99788.94;4817431;29;20083;-65
2023/10/22 03:23:48;;;;;;;8.45;4.18;;;14.30;99.90;;;14.53;100.00;99789.69;4817293;29;20054;-64
2023/10/22 03:26:19;;;;;;;11.70;4.07;;;14.20;99.90;;;14.63;100.00;99798.19;4822390;29;20063;-64
2023/10/22 03:28:50;;;;;;;8.10;4.40;;;14.30;99.90;;;14.41;100.00;99776.84;4814553;29;20057;-64
2023/10/22 03:31:18;;;;;;;7.18;4.68;;;14.40;99.90;;;14.70;100.00;99813.00;4815287;29;20051;-63
2023/10/22 03:33:47;;;;;;;9.02;4.95;;;14.40;99.90;;;14.79;100.00;99815.34;4821904;29;20509;-64
2023/10/22 03:36:15;;;;;;;12.15;5.25;;;14.50;99.90;;;14.78;100.00;99817.13;4811015;29;20382;-64
2023/10/22 03:38:44;;;;;;;12.13;5.28;;;14.50;99.90;;;14.83;100.00;99825.78;4818655;29;20083;-63
2023/10/22 03:41:14;;;;;;;9.40;5.15;;;14.60;99.90;;;14.87;100.00;99827.41;4818732;29;20550;-63
2023/10/22 03:43:44;;;;;;;12.88;5.28;;;14.60;99.90;;;14.92;100.00;99830.78;4811243;29;20050;-63
2023/10/22 03:46:12;;;;;;;9.43;5.10;;;14.70;99.90;;;14.88;100.00;99831.81;4821787;29;20078;-63
2023/10/22 03:48:40;;;;;;;10.02;5.80;;;14.60;99.90;;;14.99;100.00;99840.25;4799167;29;20055;-63
2023/10/22 03:51:09;;;;;;;8.75;5.65;;;14.70;99.90;;;14.97;100.00;99855.41;4813623;29;20069;-63
2023/10/22 03:53:41;;;;;;;8.63;4.75;;;14.70;99.90;;;15.10;100.00;99858.47;4822279;29;20125;-64
2023/10/22 03:56:09;;;;;;;12.35;5.38;;;14.80;99.90;;;15.13;100.00;99869.88;4812564;29;20050;-64
2023/10/22 03:58:38;;;;;;;9.27;5.05;;;14.80;99.90;;;15.20;100.00;99881.16;4816873;29;20121;-64
2023/10/22 04:01:08;;;;;;;9.35;5.20;;;14.90;99.90;;;15.14;100.00;99870.72;4819477;29;20046;-64
2023/10/22 04:03:36;;;;;;;8.77;4.57;;;14.90;99.90;;;15.02;99.95;99890.72;4810671;29;20100;-64
2023/10/22 04:06:05;;;;;;;8.68;4.18;;;14.80;99.90;;;14.95;98.05;99899.88;4819786;29;20046;-63
2023/10/22 04:08:33;;;;;;;7.13;3.95;;;14.70;99.90;;;14.84;96.43;99895.88;4816103;29;20054;-64
2023/10/22 04:11:03;;;;;;;6.90;3.55;;;14.60;99.90;;;14.80;95.25;99905.78;4810825;29;20100;-64
2023/10/22 04:13:31;;;;;;;5.10;3.95;;;14.50;99.90;;;14.76;95.25;99898.84;4821466;29;20080;-63
2023/10/22 04:16:00;;;;;;;7.00;3.63;;;14.60;99.90;;;14.90;94.75;99915.16;4812537;29;20057;-63
2023/10/22 04:18:30;;;;;;;6.88;3.53;;;14.60;99.90;;;14.86;93.81;99896.69;4815192;29;20054;-63
2023/10/22 04:20:58;;;;;;;13.98;3.80;;;14.70;99.90;;;14.96;92.92;99920.25;4820511;29;20058;-63
2023/10/22 04:23:27;;;;;;;6.30;3.60;;;14.70;99.90;;;14.98;92.53;99925.53;4809938;29;20061;-63
2023/10/22 04:25:55;;;;;;;9.40;3.70;;;14.70;99.90;;;14.90;92.54;99925.81;4818505;29;20101;-63
2023/10/22 04:28:24;;;;;;;5.53;3.15;;;14.70;99.90;;;14.87;92.48;99933.91;4816777;29;20053;-63
2023/10/22 04:30:55;;;;;;;8.38;3.88;;;14.70;99.90;;;14.97;92.76;99942.41;4810615;29;20455;-63
2023/10/22 04:33:23;;;;;;;8.63;3.80;;;14.70;99.90;;;14.35;92.27;99865.75;4821421;29;20039;-63
2023/10/22 04:35:53;;;;;;;6.55;3.58;;;14.70;99.90;;;14.58;91.09;99960.69;4813482;29;20125;-63
2023/10/22 04:38:21;;;;;;;6.70;3.87;;;14.40;99.90;;;14.05;92.67;99874.75;4813958;29;20062;-63
2023/10/22 04:40:50;;;;;;;8.10;3.65;;;14.30;99.90;;;14.55;93.50;99966.16;4805085;29;20166;-63
2023/10/22 04:43:18;;;;;;;9.20;3.88;;;14.30;99.90;;;14.61;94.57;99955.28;4810129;29;20058;-63
2023/10/22 04:45:47;;;;;;;6.47;4.18;;;14.30;99.90;;;14.60;95.05;99937.56;4817064;29;20135;-63
2023/10/22 04:48:15;;;;;;;6.85;3.50;;;14.40;99.90;;;14.77;95.08;99960.94;4818159;29;20058;-64
2023/10/22 04:50:45;;;;;;;9.65;4.00;;;14.40;99.90;;;14.86;95.07;99961.47;4809757;29;20474;-63
2023/10/22 04:53:15;;;;;;;8.57;4.03;;;14.50;99.90;;;14.95;95.18;99971.78;4820329;29;20066;-64
2023/10/22 04:55:43;;;;;;;9.80;4.77;;;14.60;99.90;;;15.00;94.89;99969.81;4814377;29;20042;-64
2023/10/22 04:58:11;;;;;;;7.63;3.72;;;14.70;99.90;;;15.09;94.78;99982.81;4812537;29;20054;-65
2023/10/22 05:00:40;;;;;;;9.07;4.07;;;14.70;99.90;;;15.07;94.58;99979.31;4820931;29;20055;-64
2023/10/22 05:03:09;;;;;;;5.40;4.15;;;14.70;99.90;;;15.11;94.79;99996.06;4810729;29;20042;-63
2023/10/22 05:05:38;;;;;;;8.13;4.00;;;14.80;99.90;;;15.15;94.75;99973.72;4815991;29;20112;-64
2023/10/22 05:08:07;;;;;;;7.40;4.00;;;14.80;99.90;;;15.06;94.66;99966.06;4818438;29;20143;-65
2023/10/22 05:10:39;;;;;;;8.05;3.75;;;14.90;99.90;;;15.11;94.12;99972.09;4819391;29;20055;-64
2023/10/22 05:13:09;;;;;;;7.47;3.60;;;14.90;99.90;;;15.22;93.94;99976.09;4819058;29;20074;-65
2023/10/22 05:15:38;;;;;;;;;;;14.90;99.90;;;15.33;93.47;99994.31;4799649;29;20093;-66
2023/10/22 05:18:08;;;;;;;10.00;3.45;;;15.00;99.90;;;15.31;92.72;99996.19;4810464;29;20008;-65
2023/10/22 05:20:36;;;;;;;6.40;3.35;;;15.00;99.90;;;15.31;92.21;100006.84;4820307;29;20685;-64
2023/10/22 05:23:05;;;;;;;5.72;3.70;;;15.00;99.90;;;15.29;91.72;100006.03;4812163;29;20058;-66
2023/10/22 05:25:33;;;;;;;5.40;3.35;;;15.00;99.90;;;15.34;91.76;100012.06;4814325;29;20112;-67
2023/10/22 05:28:03;;;;;;;6.47;3.75;;;15.00;99.90;;;15.37;91.71;100006.59;4819688;29;20115;-64
2023/10/22 05:30:32;;;;;;;7.57;3.58;;;15.10;99.90;;;15.39;92.16;100021.59;4809220;29;20049;-64
2023/10/22 05:33:01;;;;;;;6.55;3.63;;;15.10;99.90;;;15.43;92.37;100029.53;4819853;29;20137;-65
2023/10/22 05:35:31;;;;;;;6.55;3.75;;;15.10;99.90;;;15.43;92.02;100038.38;4800411;29;20061;-65
2023/10/22 05:38:02;;;;;;;6.33;3.30;;;15.10;99.90;;;15.21;92.06;100022.28;4808927;29;20145;-66
2023/10/22 05:40:37;;;;;;;5.55;3.70;;;15.10;99.90;;;15.37;92.45;100049.22;4809355;29;20133;-64
2023/10/22 05:43:07;;;;;;;8.75;4.03;;;15.00;99.90;;;15.35;93.42;100051.09;4819911;29;20059;-65
2023/10/22 05:45:36;;;;;;;7.95;3.95;;;15.00;99.90;;;15.34;93.87;100060.91;4818231;29;20075;-66
2023/10/22 05:48:05;;;;;;;8.60;3.67;;;15.10;99.90;;;15.31;94.06;100068.97;4808786;29;20055;-65
2023/10/22 05:50:39;;;;;;;5.70;3.67;;;15.00;99.90;;;15.27;94.51;100069.16;4818066;29;20050;-65
2023/10/22 05:53:07;;;;;;;7.75;3.72;;;15.00;99.90;;;15.20;94.89;100071.19;4815522;29;20089;-66
2023/10/22 05:55:36;;;;;;;6.50;3.95;;;14.90;99.90;;;15.27;95.26;100069.16;4809814;29;20130;-66
2023/10/22 05:58:05;;;;;;;8.45;4.18;;;15.00;99.90;;;15.24;95.57;100080.81;4804128;29;20534;-66
2023/10/22 06:00:35;;;;;;;9.77;4.57;;;14.90;99.90;;;15.20;95.63;100089.81;4812264;29;20114;-66
2023/10/22 06:03:03;;;;;;;5.57;4.07;;;14.90;99.90;;;15.14;96.03;100092.69;4813091;29;20055;-66
2023/10/22 06:05:32;;;;;;;6.13;3.90;;;14.90;99.90;;;15.14;96.18;100092.69;4819817;29;20042;-65
2023/10/22 06:08:00;;;;;;;10.35;4.28;;;14.80;99.90;;;15.14;96.24;100095.38;4808830;29;20523;-66
2023/10/22 06:10:28;;;;;;;7.65;4.28;;;14.80;99.90;;;15.11;96.27;100108.81;4816502;29;20051;-65
2023/10/22 06:12:57;;;;;;;8.57;3.90;;;14.70;99.90;;;15.09;96.48;100101.78;4816022;29;20049;-66
2023/10/22 06:15:26;;;;;;;11.43;4.18;;;14.70;99.90;;;15.00;96.65;100110.09;4808789;29;20085;-66
2023/10/22 06:17:56;;;;;;;5.93;3.90;;;14.70;99.90;;;15.01;96.70;100107.38;4808980;29;20553;-67
2023/10/22 06:20:25;;;;;;;5.68;4.30;;;14.70;99.90;;;14.94;96.42;100111.16;4815790;29;20046;-65
2023/10/22 06:22:54;;;;;;;7.32;4.30;;;14.60;99.90;;;14.99;96.31;100122.53;4797648;29;20482;-66
2023/10/22 06:25:23;;;;;;;6.32;4.40;;;14.60;99.90;;;14.99;96.38;100117.22;4790443;29;20055;-65
2023/10/22 06:27:51;;;;;;;10.77;4.43;;;14.70;99.90;;;14.95;96.43;100126.22;4799845;29;20100;-65
2023/10/22 06:30:23;;;;;;;9.23;4.35;;;14.60;99.90;;;14.94;96.72;100134.28;4795206;29;20051;-65
2023/10/22 06:32:55;;;;;;;7.97;4.28;;;14.60;99.90;;;14.96;96.84;100141.28;4792873;29;20059;-65
2023/10/22 06:35:26;;;;;;;6.95;4.50;;;14.60;99.90;;;14.97;97.35;100145.69;4801834;29;20421;-66
2023/10/22 06:37:54;;;;;;;;;;;14.70;99.90;;;14.93;96.82;100144.06;4792386;29;20050;-66
2023/10/22 06:40:24;;;;;;;9.85;4.72;;;14.60;99.90;;;14.93;96.88;100153.81;4796146;29;19968;-65
2023/10/22 06:42:53;;;;;;;8.75;4.20;;;14.60;99.90;;;14.90;96.57;100154.81;4800940;29;20508;-63
2023/10/22 06:45:21;;;;;;;6.57;4.07;;;14.60;99.90;;;14.83;96.13;100163.03;4790190;29;20055;-63
2023/10/22 06:47:50;;;;;;;8.45;4.53;;;14.50;99.90;;;14.89;96.30;100170.81;4797690;29;20207;-63
2023/10/22 06:50:20;;;;;;;5.93;4.30;;;14.60;99.90;;;14.93;96.19;100181.34;4797537;29;20142;-64
2023/10/22 06:52:49;;;;;;;6.50;4.18;;;14.60;99.90;;;14.88;95.88;100177.97;4792263;29;20158;-63
2023/10/22 06:55:17;;;;;;;8.85;3.92;;;14.60;99.90;;;14.97;95.99;100196.28;4804996;29;20136;-63
2023/10/22 06:57:47;;;;;;;9.65;4.43;;;14.60;99.90;;;14.85;96.17;100193.16;4796892;29;20493;-61
2023/10/22 07:00:16;;;;;;;6.22;4.53;;;14.60;99.90;;;14.86;96.28;100203.78;4804110;29;20055;-62
2023/10/22 07:02:46;;;;;;;7.78;4.45;;;14.50;99.90;;;14.75;96.57;100211.22;4815532;29;20399;-62
2023/10/22 07:05:15;;;;;;;6.47;4.30;;;14.50;99.90;;;14.71;97.31;100211.38;4803956;29;20418;-62
2023/10/22 07:07:46;;;;;;;12.85;4.75;;;14.40;99.90;;;14.70;97.01;100213.16;4797532;29;20054;-62
2023/10/22 07:10:16;;;;;;;7.55;4.35;;;14.40;99.90;;;14.66;97.35;100211.50;4795887;29;20506;-62
2023/10/22 07:12:50;;;;;;;11.52;5.50;;;14.30;99.90;;;14.62;97.72;100228.50;4804560;29;20050;-61
2023/10/22 07:15:26;;;;;;;9.05;5.10;;;14.30;99.90;;;14.62;97.79;100222.28;4795633;29;20055;-61
2023/10/22 07:17:57;;;;;;;10.52;5.45;;;14.30;99.90;;;14.56;98.21;100234.00;4797632;29;20055;-61
2023/10/22 07:20:26;;;;;;;8.75;4.80;;;14.30;99.90;;;14.56;98.50;100239.31;4803860;29;20069;-62
2023/10/22 07:22:58;;;;;;;13.93;4.95;;;14.20;99.90;;;14.56;98.78;100244.66;4775131;30;20096;-61
2023/10/22 07:25:26;;;;;;;8.13;5.03;;;14.20;99.90;;;14.61;98.76;100249.84;4782154;29;20047;-62
2023/10/22 07:27:55;;;;;;;9.27;5.47;;;14.20;99.90;;;14.56;98.84;100252.63;4782767;30;20444;-61
2023/10/22 07:30:23;;;;;;;7.60;5.57;;;14.30;99.90;;;14.58;99.00;100255.25;4800311;29;20113;-61
2023/10/22 07:32:53;;;;;;;8.40;4.80;;;14.30;99.90;;;14.69;99.00;100267.31;4788940;30;20051;-63
2023/10/22 07:35:22;;;;;;;8.73;4.80;;;14.30;99.90;;;14.64;98.78;100263.94;4777328;29;20051;-62
2023/10/22 07:37:50;;;;;;;8.52;4.80;;;14.30;99.90;;;14.59;98.96;100271.19;4785736;30;20102;-61
2023/10/22 07:40:20;;;;;;;11.10;5.38;;;14.30;99.90;;;14.53;99.14;100265.16;4778021;30;20071;-62
2023/10/22 07:42:49;;;;;;;7.63;5.00;;;14.30;99.90;;;14.55;99.56;100280.19;4779141;29;20388;-62
2023/10/22 07:45:18;;;;;;;7.20;4.97;;;14.20;99.90;;;14.52;99.83;100271.44;4785594;30;20048;-62
2023/10/22 07:47:47;;;;;;;10.38;5.72;;;14.20;99.90;;;14.56;99.92;100275.72;4776074;30;20050;-62
2023/10/22 07:50:16;;;;;;;9.93;5.63;;;14.20;99.90;;;14.57;100.00;100280.13;4780287;29;20574;-60
2023/10/22 07:52:45;;;;;;;7.63;5.38;;;14.20;99.90;;;14.61;100.00;100285.31;4783438;30;20139;-60
2023/10/22 07:55:13;;;;;;;8.75;5.43;;;14.30;99.90;;;14.50;99.91;100286.56;4774964;29;20599;-60
2023/10/22 07:57:43;;;;;;;8.48;5.68;;;14.20;99.90;;;14.58;100.00;100289.84;4781861;29;20094;-60
2023/10/22 08:00:14;;;;;;;13.33;6.13;;;14.30;99.90;;;14.65;99.66;100310.94;4782972;30;20059;-60
2023/10/22 08:02:42;;;;;;;11.90;5.50;;;14.30;99.90;;;14.06;99.38;100194.72;4774829;29;20664;-61
2023/10/22 08:05:11;;;;;;;10.35;5.28;;;14.40;99.90;;;14.73;99.49;100305.38;4783429;29;20061;-61
2023/10/22 08:07:42;;;;;;;9.90;5.20;;;14.40;99.90;;;14.74;99.31;100312.44;4780270;30;20063;-61
2023/10/22 08:10:12;;;;;;;10.20;5.95;;;14.40;99.90;;;14.73;99.69;100305.38;4788492;29;20111;-61
2023/10/22 08:12:43;;;;;;;7.25;4.85;;;14.50;99.90;;;14.98;100.00;100311.69;4784087;29;20051;-61
2023/10/22 08:15:12;;;;;;;6.70;4.68;;;14.70;99.90;;;15.18;99.47;100319.91;4779125;30;20563;-62
2023/10/22 08:17:41;;;;;;;9.13;4.80;;;14.90;99.90;;;15.38;98.86;100325.47;4789384;29;20563;-63
2023/10/22 08:20:11;;;;;;;10.18;5.53;;;15.10;99.90;;;15.42;97.36;100332.50;4785151;30;20064;-63
2023/10/22 08:22:40;;;;;;;7.90;4.70;;;15.20;99.90;;;15.50;96.81;100341.09;4811584;29;20058;-62
2023/10/22 08:25:09;;;;;;;8.30;4.70;;;15.20;99.90;;;15.49;96.42;100333.13;4813098;29;20152;-63
2023/10/22 08:27:38;;;;;;;7.05;5.00;;;15.20;99.90;;;15.53;96.37;100337.44;4804568;29;20130;-63
2023/10/22 08:30:09;;;;;;;9.30;4.78;;;15.30;99.90;;;15.48;96.02;100339.41;4812398;29;20061;-63
2023/10/22 08:32:44;;;;;;;7.35;4.60;;;15.20;99.90;;;15.46;95.91;100327.91;4814127;29;20046;-62
2023/10/22 08:35:12;;;;;;;7.85;4.65;;;15.20;99.90;;;15.39;95.98;100344.06;4820990;29;20127;-62
2023/10/22 08:37:41;;;;;;;7.53;4.25;;;15.10;99.90;;;15.30;96.01;100332.84;4790440;29;20058;-62
2023/10/22 08:40:11;;;;;;;5.30;4.30;;;15.00;99.90;;;15.25;96.38;100342.78;4815956;29;20110;-67
2023/10/22 08:42:40;;;;;;;8.52;5.03;;;15.00;99.90;;;15.27;96.91;100348.94;4810774;29;20054;-63
2023/10/22 08:45:10;;;;;;;12.68;4.80;;;15.00;99.90;;;15.16;97.21;100354.59;4820697;29;20068;-62
2023/10/22 08:47:40;;;;;;;8.27;4.65;;;14.90;99.90;;;15.03;97.38;100347.03;4790243;29;20054;-62
2023/10/22 08:50:12;;;;;;;7.07;4.93;;;14.80;99.90;;;15.15;97.61;100362.66;4818856;29;20058;-62
2023/10/22 08:52:40;;;;;;;8.70;4.80;;;14.80;99.90;;;15.17;98.01;100361.69;4810232;29;20062;-62
2023/10/22 08:55:09;;;;;;;8.70;4.60;;;14.90;99.90;;;15.22;97.98;100369.50;4817462;29;20050;-60
2023/10/22 08:57:41;;;;;;;7.38;4.50;;;14.90;99.90;;;15.15;98.25;100370.63;4817241;29;20176;-62
2023/10/22 09:00:13;;;;;;;8.43;4.53;;;14.90;99.90;;;15.13;98.79;100378.69;4809759;29;20455;-64
2023/10/22 09:02:44;;;;;;;9.65;4.72;;;14.80;99.90;;;15.20;98.68;100382.88;4818274;29;20055;-63
2023/10/22 09:05:13;;;;;;;9.38;4.75;;;14.90;99.90;;;15.22;98.73;100377.50;4816332;29;20047;-63
2023/10/22 09:07:52;;;;;;;6.45;4.50;;;14.90;99.90;;;15.23;98.40;100384.59;4809756;29;20051;-64
2023/10/22 09:10:26;;;;;;;7.40;4.63;;;14.90;99.90;;;15.27;98.00;100389.75;4818540;29;20061;-65
2023/10/22 09:12:54;;;;;;;9.05;4.68;;;15.00;99.90;;;15.47;98.50;100390.97;4816400;29;20421;-64
2023/10/22 09:15:24;;;;;;;8.68;4.22;;;15.10;99.90;;;15.76;98.87;100402.44;4809424;29;20130;-63
2023/10/22 09:18:03;;;;;;;8.30;4.20;;;15.40;99.90;;;16.19;98.36;100400.06;4819203;29;20413;-63
2023/10/22 09:20:34;;;;;;;9.43;4.43;;;15.90;99.90;;;16.43;95.90;100409.00;4815836;29;20125;-65
2023/10/22 09:23:18;;;;;;;7.72;4.30;;;16.10;99.90;;;16.69;94.46;100403.63;4809647;29;20085;-63
2023/10/22 09:25:48;;;;;;;9.32;4.50;;;16.60;99.90;;;17.17;92.91;100414.25;4817460;29;20502;-63
2023/10/22 09:28:21;;;;;;;4.63;4.20;;;16.90;99.90;;;17.20;91.53;100400.78;4816636;29;20139;-63
2023/10/22 09:30:56;;;;;;;7.75;4.07;;;17.10;99.90;;;17.63;90.55;100424.94;4808426;29;20619;-64
2023/10/22 09:33:33;;;;;;;10.60;4.53;;;17.40;99.90;;;17.89;90.44;100403.31;4817550;29;20046;-62
2023/10/22 09:36:05;;;;;;;9.60;4.10;;;17.70;99.90;;;18.21;86.84;100430.53;4816150;29;20046;-62
2023/10/22 09:38:45;;;;;;;8.93;3.60;;;18.00;99.90;;;18.21;84.02;100433.22;4809323;29;20054;-62
2023/10/22 09:41:15;;;;;;;6.85;3.95;;;18.00;99.90;;;17.63;82.79;100341.13;4816691;29;20074;-64
2023/10/22 09:43:44;;;;;;;8.63;4.30;;;18.00;99.90;;;18.45;82.93;100434.84;4815889;29;20106;-63
2023/10/22 09:46:14;;;;;;;5.00;3.17;;;18.20;99.90;;;18.14;82.14;100410.34;4808487;29;20553;-62
2023/10/22 09:48:44;;;;;;;8.88;3.85;;;18.00;99.90;;;18.10;82.30;100444.38;4817992;29;20050;-63
2023/10/22 09:51:15;;;;;;;7.35;3.70;;;17.90;99.90;;;18.04;82.42;100439.25;4789383;29;20055;-63
2023/10/22 09:53:53;;;;;;;7.40;3.65;;;17.80;99.90;;;17.77;82.54;100440.41;4819989;29;20054;-62
2023/10/22 09:56:23;;;;;;;8.38;4.00;;;17.50;99.90;;;17.64;83.38;100437.38;4795089;29;20077;-63
2023/10/22 09:59:01;;;;;;;4.72;3.63;;;17.40;99.90;;;17.54;84.41;100451.16;4813501;29;20058;-62
2023/10/22 10:01:32;;;;;;;6.25;4.10;;;17.30;99.90;;;17.62;85.10;100443.69;4820419;29;20050;-62
2023/10/22 10:04:03;;;;;;;8.27;4.45;;;17.30;99.90;;;17.63;84.80;100450.81;4811331;29;20051;-62
2023/10/22 10:06:32;;;;;;;8.30;4.15;;;17.30;99.90;;;17.60;83.78;100450.91;4813252;29;20112;-61
2023/10/22 10:09:03;;;;;;;6.30;4.15;;;17.30;99.90;;;17.94;84.39;100448.63;4819784;29;20120;-65
2023/10/22 10:11:32;;;;;;;7.97;3.85;;;17.60;99.90;;;18.17;83.77;100436.97;4809808;29;20046;-62
2023/10/22 10:14:12;;;;;;;6.40;3.00;;;18.00;99.90;;;18.48;81.73;100462.41;4814462;29;20492;-62
2023/10/22 10:16:45;;;;;;;6.80;3.83;;;18.20;99.90;;;18.86;80.72;100472.31;4819921;29;20054;-63
2023/10/22 10:19:22;;;;;;;6.18;3.75;;;18.60;99.90;;;18.98;78.84;100470.00;4810013;29;20050;-61
2023/10/22 10:21:52;;;;;;;6.47;3.40;;;18.80;99.90;;;19.16;77.73;100480.78;4813075;29;20104;-61